createdAt,value
2019-03-30T00:01:54.184Z,43.10
2019-03-30T00:04:25.688Z,35.70
2019-03-30T00:06:57.630Z,38.60
2019-03-30T00:09:29.347Z,41.23
2019-03-30T00:12:00.751Z,36.83
2019-03-30T00:14:32.210Z,39.93
2019-03-30T00:17:03.884Z,35.80
2019-03-30T00:19:35.564Z,40.20
2019-03-30T00:22:07.580Z,33.48
2019-03-30T00:24:39.012Z,36.73
2019-03-30T00:27:10.648Z,36.30
2019-03-30T00:29:42.118Z,36.73
2019-03-30T00:32:13.485Z,38.77
2019-03-30T00:34:44.869Z,38.73
2019-03-30T00:37:16.875Z,39.00
2019-03-30T00:39:48.870Z,35.93
2019-03-30T00:42:20.659Z,36.37
2019-03-30T00:44:52.054Z,34.30
2019-03-30T00:47:23.688Z,32.23
2019-03-30T00:49:55.195Z,32.07
2019-03-30T00:52:27.147Z,36.00
2019-03-30T00:54:58.770Z,34.63
2019-03-30T00:57:30.617Z,34.67
2019-03-30T01:00:02.350Z,35.50
2019-03-30T01:02:33.741Z,33.35
2019-03-30T01:05:05.498Z,34.07
2019-03-30T01:07:36.950Z,33.27
2019-03-30T01:10:08.443Z,34.63
2019-03-30T01:12:40.043Z,34.07
2019-03-30T01:15:11.621Z,34.30
2019-03-30T01:17:43.342Z,38.33
2019-03-30T01:20:14.998Z,34.93
2019-03-30T01:22:46.962Z,31.97
2019-03-30T01:25:18.386Z,34.27
2019-03-30T01:27:51.069Z,31.83
2019-03-30T01:30:23.694Z,31.37
2019-03-30T01:32:55.158Z,33.00
2019-03-30T01:35:26.912Z,29.43
2019-03-30T01:37:59.062Z,29.47
2019-03-30T01:40:30.722Z,33.58
2019-03-30T01:43:02.171Z,36.53
2019-03-30T01:45:33.580Z,30.80
2019-03-30T01:48:05.847Z,34.20
2019-03-30T01:50:37.468Z,31.60
2019-03-30T01:53:08.870Z,35.33
2019-03-30T01:55:40.260Z,32.57
2019-03-30T01:58:12.265Z,31.10
2019-03-30T02:00:43.704Z,29.23
2019-03-30T02:03:15.686Z,32.40
2019-03-30T02:05:47.281Z,31.00
2019-03-30T02:08:19.675Z,30.17
2019-03-30T02:10:51.078Z,31.60
2019-03-30T02:13:22.506Z,30.17
2019-03-30T02:15:54.291Z,35.13
2019-03-30T02:18:25.697Z,29.13
2019-03-30T02:20:57.088Z,31.03
2019-03-30T02:23:28.718Z,34.37
2019-03-30T02:26:00.216Z,33.03
2019-03-30T02:28:32.191Z,27.77
2019-03-30T02:31:03.612Z,32.60
2019-03-30T02:33:35.371Z,31.37
2019-03-30T02:36:06.747Z,29.03
2019-03-30T02:38:38.439Z,29.87
2019-03-30T02:41:09.822Z,28.38
2019-03-30T02:43:41.601Z,28.77
2019-03-30T02:46:12.974Z,31.97
2019-03-30T02:48:44.853Z,28.67
2019-03-30T02:51:16.232Z,27.07
2019-03-30T02:53:48.408Z,26.93
2019-03-30T02:56:20.103Z,29.30
2019-03-30T02:58:51.714Z,26.57
2019-03-30T03:01:23.478Z,21.03
2019-03-30T03:03:55.331Z,25.47
2019-03-30T03:06:26.965Z,19.87
2019-03-30T03:08:58.366Z,17.80
2019-03-30T03:11:30.104Z,23.23
2019-03-30T03:14:01.862Z,22.20
2019-03-30T03:16:33.530Z,20.20
2019-03-30T03:19:05.155Z,29.42
2019-03-30T03:21:36.567Z,20.80
2019-03-30T03:24:08.269Z,22.07
2019-03-30T03:26:39.668Z,20.70
2019-03-30T03:29:11.384Z,24.70
2019-03-30T03:31:43.090Z,25.40
2019-03-30T03:34:14.871Z,24.98
2019-03-30T03:36:46.247Z,23.50
2019-03-30T03:39:19.016Z,24.03
2019-03-30T03:41:50.730Z,22.50
2019-03-30T03:44:22.321Z,24.23
2019-03-30T03:46:53.714Z,21.37
2019-03-30T03:49:25.426Z,21.73
2019-03-30T03:51:58.315Z,21.87
2019-03-30T03:54:30.322Z,23.10
2019-03-30T03:57:03.820Z,23.37
2019-03-30T03:59:37.189Z,23.75
2019-03-30T04:02:11.145Z,26.27
2019-03-30T04:04:47.339Z,24.77
2019-03-30T04:07:19.039Z,32.13
2019-03-30T04:09:51.440Z,29.07
2019-03-30T04:12:24.400Z,28.83
2019-03-30T04:14:55.855Z,24.07
2019-03-30T04:17:27.608Z,34.20
2019-03-30T04:19:58.986Z,25.97
2019-03-30T04:22:30.379Z,27.73
2019-03-30T04:25:01.964Z,26.73
2019-03-30T04:27:34.193Z,29.33
2019-03-30T04:30:05.807Z,28.87
2019-03-30T04:32:38.187Z,30.67
2019-03-30T04:35:09.543Z,32.58
2019-03-30T04:37:40.941Z,30.60
2019-03-30T04:40:12.664Z,29.10
2019-03-30T04:42:44.030Z,33.23
2019-03-30T04:45:15.562Z,33.05
2019-03-30T04:47:46.914Z,34.13
2019-03-30T04:50:18.545Z,32.77
2019-03-30T04:52:50.506Z,41.37
2019-03-30T04:55:22.364Z,37.93
2019-03-30T04:57:57.844Z,37.80
2019-03-30T05:00:27.089Z,35.90
2019-03-30T05:02:59.510Z,37.58
2019-03-30T05:05:30.922Z,35.60
2019-03-30T05:08:02.309Z,39.33
2019-03-30T05:10:34.048Z,36.80
2019-03-30T05:13:05.456Z,33.02
2019-03-30T05:15:36.894Z,40.60
2019-03-30T05:18:08.611Z,41.50
2019-03-30T05:20:40.053Z,39.00
2019-03-30T05:23:11.721Z,34.27
2019-03-30T05:25:43.088Z,35.70
2019-03-30T05:28:15.534Z,42.00
2019-03-30T05:30:47.793Z,38.80
2019-03-30T05:33:19.164Z,37.47
2019-03-30T05:35:50.946Z,37.07
2019-03-30T05:38:22.657Z,39.00
2019-03-30T05:40:54.035Z,43.30
2019-03-30T05:43:25.439Z,38.70
2019-03-30T05:45:57.039Z,36.33
2019-03-30T05:48:28.869Z,36.63
2019-03-30T05:51:00.671Z,38.60
2019-03-30T05:53:32.328Z,38.45
2019-03-30T05:56:03.720Z,42.03
2019-03-30T05:58:35.094Z,35.43
2019-03-30T06:01:06.694Z,37.50
2019-03-30T06:03:38.405Z,37.17
2019-03-30T06:06:09.851Z,34.80
2019-03-30T06:08:41.272Z,38.43
2019-03-30T06:11:13.199Z,29.47
2019-03-30T06:13:44.823Z,37.60
2019-03-30T06:16:16.214Z,32.05
2019-03-30T06:18:48.130Z,29.70
2019-03-30T06:21:19.571Z,30.20
2019-03-30T06:23:51.062Z,29.17
2019-03-30T06:26:23.659Z,22.57
2019-03-30T06:28:55.045Z,29.53
2019-03-30T06:31:26.552Z,25.67
2019-03-30T06:33:57.946Z,24.63
2019-03-30T06:36:29.624Z,24.07
2019-03-30T06:39:01.572Z,31.73
2019-03-30T06:41:34.164Z,20.93
2019-03-30T06:44:05.577Z,26.85
2019-03-30T06:46:39.462Z,22.13
2019-03-30T06:49:11.102Z,18.52
2019-03-30T06:51:42.499Z,18.95
2019-03-30T06:54:14.948Z,19.90
2019-03-30T06:56:46.370Z,16.20
2019-03-30T06:59:18.227Z,15.67
2019-03-30T07:01:50.057Z,16.87
2019-03-30T07:04:21.597Z,18.30
2019-03-30T07:06:53.330Z,18.53
2019-03-30T07:09:26.599Z,15.60
2019-03-30T07:11:59.909Z,14.93
2019-03-30T07:14:33.665Z,17.50
2019-03-30T07:17:05.216Z,19.37
2019-03-30T07:19:38.323Z,19.73
2019-03-30T07:22:09.755Z,17.47
2019-03-30T07:24:41.120Z,18.20
2019-03-30T07:27:12.828Z,18.23
2019-03-30T07:29:44.535Z,15.13
2019-03-30T07:32:16.229Z,17.62
2019-03-30T07:34:47.858Z,15.90
2019-03-30T07:37:19.275Z,19.83
2019-03-30T07:39:50.988Z,17.20
2019-03-30T07:42:22.686Z,16.77
2019-03-30T07:44:54.688Z,16.30
2019-03-30T07:47:26.056Z,17.53
2019-03-30T07:49:57.868Z,15.00
2019-03-30T07:52:31.865Z,18.70
2019-03-30T07:55:03.313Z,15.93
2019-03-30T07:57:34.785Z,19.23
2019-03-30T08:00:12.674Z,18.10
2019-03-30T08:02:44.150Z,17.23
2019-03-30T08:05:15.802Z,17.90
2019-03-30T08:07:48.369Z,18.75
2019-03-30T08:10:20.134Z,18.65
2019-03-30T08:12:51.941Z,16.73
2019-03-30T08:15:23.425Z,17.23
2019-03-30T08:17:55.270Z,17.77
2019-03-30T08:20:27.982Z,16.53
2019-03-30T08:22:59.392Z,20.03
2019-03-30T08:25:30.890Z,17.03
2019-03-30T08:28:04.375Z,19.65
2019-03-30T08:30:36.071Z,16.20
2019-03-30T08:33:08.814Z,16.33
2019-03-30T08:35:40.578Z,20.03
2019-03-30T08:38:12.309Z,18.73
2019-03-30T08:40:44.292Z,15.10
2019-03-30T08:43:16.054Z,17.83
2019-03-30T08:45:48.989Z,16.80
2019-03-30T08:48:21.111Z,18.27
2019-03-30T08:50:52.820Z,15.30
2019-03-30T08:53:24.352Z,12.57
2019-03-30T08:55:56.057Z,17.60
2019-03-30T08:58:27.728Z,19.67
2019-03-30T09:01:00.078Z,14.43
2019-03-30T09:03:33.940Z,16.47
2019-03-30T09:06:04.642Z,20.53
2019-03-30T09:08:36.330Z,15.47
2019-03-30T09:11:08.235Z,14.67
2019-03-30T09:13:40.192Z,17.37
2019-03-30T09:16:11.789Z,14.17
2019-03-30T09:18:43.179Z,17.87
2019-03-30T09:21:14.833Z,19.37
2019-03-30T09:23:47.796Z,17.43
2019-03-30T09:26:19.409Z,18.47
2019-03-30T09:28:51.306Z,17.27
2019-03-30T09:31:24.256Z,17.43
2019-03-30T09:33:55.914Z,20.00
2019-03-30T09:36:27.449Z,22.67
2019-03-30T09:38:58.828Z,19.43
2019-03-30T09:41:30.238Z,22.40
2019-03-30T09:44:01.887Z,21.57
2019-03-30T09:46:34.674Z,20.40
2019-03-30T09:49:06.284Z,21.53
2019-03-30T09:51:37.801Z,22.13
2019-03-30T09:54:22.858Z,23.73
2019-03-30T09:56:42.563Z,21.10
2019-03-30T09:59:13.984Z,23.30
2019-03-30T10:01:45.737Z,23.40
2019-03-30T10:04:17.397Z,27.97
2019-03-30T10:06:49.701Z,23.90
2019-03-30T10:09:21.377Z,20.23
2019-03-30T10:11:53.072Z,24.63
2019-03-30T10:14:24.540Z,22.43
2019-03-30T10:16:55.972Z,23.87
2019-03-30T10:19:27.746Z,22.67
2019-03-30T10:21:59.672Z,23.07
2019-03-30T10:24:37.858Z,25.80
2019-03-30T10:27:05.335Z,24.87
2019-03-30T10:29:37.940Z,21.57
2019-03-30T10:32:09.361Z,22.80
2019-03-30T10:34:40.772Z,23.17
2019-03-30T10:37:12.226Z,24.27
2019-03-30T10:39:45.944Z,26.45
2019-03-30T10:42:17.403Z,25.10
2019-03-30T10:44:49.117Z,25.93
2019-03-30T10:47:20.629Z,26.03
2019-03-30T10:49:52.132Z,26.80
2019-03-30T10:52:23.965Z,27.70
2019-03-30T10:54:55.642Z,25.10
2019-03-30T10:57:27.306Z,23.97
2019-03-30T10:59:58.754Z,21.90
2019-03-30T11:02:30.194Z,23.83
2019-03-30T11:05:03.204Z,24.60
2019-03-30T11:07:34.991Z,22.80
2019-03-30T11:10:07.669Z,27.30
2019-03-30T11:12:39.081Z,24.60
2019-03-30T11:15:10.488Z,24.30
2019-03-30T11:17:42.510Z,25.63
2019-03-30T11:20:13.943Z,29.57
2019-03-30T11:22:45.371Z,24.95
2019-03-30T11:25:17.121Z,23.77
2019-03-30T11:27:48.575Z,28.20
2019-03-30T11:30:20.079Z,24.80
2019-03-30T11:32:52.137Z,26.97
2019-03-30T11:35:23.608Z,24.63
2019-03-30T11:37:55.348Z,19.85
2019-03-30T11:40:26.818Z,22.80
2019-03-30T11:42:59.296Z,18.97
2019-03-30T11:45:30.931Z,20.00
2019-03-30T11:48:03.317Z,23.43
2019-03-30T11:50:35.700Z,22.97
2019-03-30T11:53:07.744Z,24.40
2019-03-30T11:55:39.412Z,25.43
2019-03-30T11:58:11.133Z,25.00
2019-03-30T12:00:44.903Z,23.63
2019-03-30T12:03:16.937Z,25.23
2019-03-30T12:05:48.399Z,19.67
2019-03-30T12:08:19.917Z,21.90
2019-03-30T12:10:51.576Z,21.10
2019-03-30T12:13:23.355Z,21.10
2019-03-30T12:15:55.017Z,20.23
2019-03-30T12:18:26.781Z,20.83
2019-03-30T12:20:58.254Z,22.20
2019-03-30T12:23:29.965Z,19.97
2019-03-30T12:26:01.559Z,26.70
2019-03-30T12:28:32.986Z,24.73
2019-03-30T12:31:04.553Z,22.50
2019-03-30T12:33:36.228Z,22.57
2019-03-30T12:36:08.147Z,20.37
2019-03-30T12:38:39.845Z,21.70
2019-03-30T12:41:11.268Z,19.20
2019-03-30T12:43:42.593Z,24.87
2019-03-30T12:46:14.296Z,20.43
2019-03-30T12:48:47.896Z,17.93
2019-03-30T12:51:19.299Z,19.60
2019-03-30T12:53:50.905Z,24.03
2019-03-30T12:56:22.340Z,17.92
2019-03-30T12:58:54.664Z,23.65
2019-03-30T13:01:27.158Z,21.93
2019-03-30T13:03:58.809Z,18.83
2019-03-30T13:06:30.191Z,16.07
2019-03-30T13:09:01.874Z,20.03
2019-03-30T13:11:34.313Z,16.63
2019-03-30T13:14:06.736Z,13.80
2019-03-30T13:16:38.375Z,14.97
2019-03-30T13:19:09.889Z,14.37
2019-03-30T13:21:52.308Z,16.30
2019-03-30T13:24:15.595Z,13.67
2019-03-30T13:26:47.131Z,14.35
2019-03-30T13:29:19.556Z,12.07
2019-03-30T13:31:50.955Z,15.18
2019-03-30T13:34:22.385Z,15.40
2019-03-30T13:36:53.752Z,11.25
2019-03-30T13:39:25.177Z,14.03
2019-03-30T13:41:56.874Z,14.57
2019-03-30T13:44:28.794Z,13.17
2019-03-30T13:47:00.474Z,14.80
2019-03-30T13:49:32.113Z,17.83
2019-03-30T13:52:03.858Z,15.63
2019-03-30T13:54:38.499Z,12.60
2019-03-30T13:57:08.984Z,12.10
2019-03-30T13:59:40.472Z,14.47
2019-03-30T14:02:11.904Z,15.67
2019-03-30T14:04:43.287Z,16.07
2019-03-30T14:07:14.719Z,15.25
2019-03-30T14:09:46.134Z,16.53
2019-03-30T14:12:18.661Z,15.48
2019-03-30T14:14:51.412Z,15.72
2019-03-30T14:17:23.512Z,16.00
2019-03-30T14:19:54.891Z,11.63
2019-03-30T14:22:26.281Z,13.77
2019-03-30T14:24:58.441Z,11.17
2019-03-30T14:27:29.847Z,15.27
2019-03-30T14:30:01.328Z,11.47
2019-03-30T14:32:32.801Z,11.03
2019-03-30T14:35:04.525Z,17.17
2019-03-30T14:37:35.921Z,11.83
2019-03-30T14:40:07.926Z,11.90
2019-03-30T14:42:39.651Z,13.73
2019-03-30T14:45:11.420Z,12.93
2019-03-30T14:47:43.038Z,12.07
2019-03-30T14:50:15.138Z,14.58
2019-03-30T14:52:46.885Z,15.37
2019-03-30T14:55:18.318Z,16.00
2019-03-30T14:57:50.113Z,16.97
2019-03-30T15:00:21.686Z,12.55
2019-03-30T15:02:53.454Z,10.10
2019-03-30T15:05:25.137Z,11.63
2019-03-30T15:07:56.601Z,12.67
2019-03-30T15:10:28.042Z,14.17
2019-03-30T15:12:59.975Z,11.33
2019-03-30T15:15:31.495Z,11.37
2019-03-30T15:18:02.963Z,12.37
2019-03-30T15:20:34.480Z,12.87
2019-03-30T15:23:06.142Z,12.27
2019-03-30T15:25:37.587Z,12.87
2019-03-30T15:28:09.036Z,12.40
2019-03-30T15:30:45.029Z,9.77
2019-03-30T15:33:17.045Z,9.73
2019-03-30T15:35:48.487Z,11.70
2019-03-30T15:38:22.714Z,12.50
2019-03-30T15:40:55.769Z,9.63
2019-03-30T15:43:38.282Z,12.00
2019-03-30T15:46:00.700Z,9.55
2019-03-30T15:48:32.411Z,19.47
2019-03-30T15:51:04.866Z,15.03
2019-03-30T15:53:36.289Z,11.50
2019-03-30T15:56:07.846Z,11.97
2019-03-30T15:58:43.351Z,11.23
2019-03-30T16:01:15.707Z,10.70
2019-03-30T16:03:47.062Z,13.30
2019-03-30T16:06:18.570Z,10.03
2019-03-30T16:08:50.093Z,13.87
2019-03-30T16:11:21.579Z,13.03
2019-03-30T16:13:53.207Z,13.33
2019-03-30T16:16:25.057Z,12.60
2019-03-30T16:18:56.494Z,12.97
2019-03-30T16:21:27.896Z,11.87
2019-03-30T16:23:59.340Z,13.67
2019-03-30T16:26:41.790Z,15.57
2019-03-30T16:29:04.574Z,14.80
2019-03-30T16:31:36.001Z,18.50
2019-03-30T16:34:07.387Z,19.83
2019-03-30T16:36:38.991Z,20.27
2019-03-30T16:39:11.146Z,19.87
2019-03-30T16:41:42.627Z,19.50
2019-03-30T16:44:15.222Z,19.10
2019-03-30T16:46:46.945Z,19.93
2019-03-30T16:49:19.529Z,18.47
2019-03-30T16:51:51.360Z,17.70
2019-03-30T16:54:28.805Z,25.90
2019-03-30T16:57:01.481Z,14.13
2019-03-30T16:59:33.090Z,20.23
2019-03-30T17:02:04.796Z,19.00
2019-03-30T17:04:36.504Z,18.93
2019-03-30T17:07:07.899Z,16.07
2019-03-30T17:09:39.285Z,15.80
2019-03-30T17:12:11.140Z,19.20
2019-03-30T17:14:42.522Z,15.50
2019-03-30T17:17:14.006Z,14.60
2019-03-30T17:19:45.768Z,14.97
2019-03-30T17:22:17.366Z,13.50
2019-03-30T17:24:49.089Z,15.57
2019-03-30T17:27:20.836Z,13.57
2019-03-30T17:29:52.524Z,13.33
2019-03-30T17:32:23.886Z,18.27
2019-03-30T17:34:55.661Z,15.63
2019-03-30T17:37:27.402Z,16.23
2019-03-30T17:39:58.860Z,15.32
2019-03-30T17:42:31.581Z,16.00
2019-03-30T17:45:03.173Z,16.63
2019-03-30T17:47:35.283Z,14.27
2019-03-30T17:50:09.155Z,21.00
2019-03-30T17:52:45.583Z,18.33
2019-03-30T17:55:17.049Z,25.43
2019-03-30T17:57:48.484Z,23.27
2019-03-30T18:00:20.749Z,20.03
2019-03-30T18:02:52.890Z,24.98
2019-03-30T18:05:24.539Z,26.17
2019-03-30T18:07:55.959Z,24.80
2019-03-30T18:10:27.453Z,19.83
2019-03-30T18:12:58.982Z,22.95
2019-03-30T18:15:34.931Z,22.53
2019-03-30T18:18:06.972Z,21.43
2019-03-30T18:20:38.985Z,20.30
2019-03-30T18:23:10.391Z,19.97
2019-03-30T18:25:41.801Z,20.13
2019-03-30T18:28:26.423Z,21.60
2019-03-30T18:30:46.573Z,22.20
2019-03-30T18:33:18.076Z,21.50
2019-03-30T18:35:49.987Z,20.23
2019-03-30T18:38:21.859Z,25.75
2019-03-30T18:40:53.267Z,25.20
2019-03-30T18:43:24.734Z,30.20
2019-03-30T18:45:56.801Z,39.10
2019-03-30T18:48:28.249Z,46.53
2019-03-30T18:51:00.081Z,32.43
2019-03-30T18:53:31.685Z,22.87
2019-03-30T18:56:03.081Z,22.07
2019-03-30T18:58:41.659Z,26.27
2019-03-30T19:01:08.904Z,24.10
2019-03-30T19:03:40.378Z,27.33
2019-03-30T19:06:12.443Z,22.20
2019-03-30T19:08:43.907Z,30.47
2019-03-30T19:11:15.299Z,23.77
2019-03-30T19:13:46.744Z,28.53
2019-03-30T19:16:18.478Z,21.27
2019-03-30T19:18:50.896Z,27.97
2019-03-30T19:21:22.385Z,25.60
2019-03-30T19:23:53.800Z,24.53
2019-03-30T19:26:25.513Z,26.77
2019-03-30T19:28:57.098Z,23.90
2019-03-30T19:31:28.828Z,25.12
2019-03-30T19:34:00.724Z,27.23
2019-03-30T19:36:32.277Z,23.40
2019-03-30T19:39:04.737Z,26.30
2019-03-30T19:41:36.205Z,24.43
2019-03-30T19:44:07.697Z,21.60
2019-03-30T19:46:39.113Z,24.60
2019-03-30T19:49:10.744Z,22.67
2019-03-30T19:51:42.150Z,22.80
2019-03-30T19:54:14.022Z,26.27
2019-03-30T19:56:46.935Z,21.73
2019-03-30T19:59:18.304Z,32.50
2019-03-30T20:01:50.428Z,25.03
2019-03-30T20:04:22.122Z,28.47
2019-03-30T20:06:53.697Z,27.77
2019-03-30T20:09:25.130Z,23.35
2019-03-30T20:11:56.520Z,20.60
2019-03-30T20:14:28.123Z,27.30
2019-03-30T20:16:59.686Z,21.17
2019-03-30T20:19:31.294Z,25.00
2019-03-30T20:22:02.908Z,22.27
2019-03-30T20:24:34.623Z,27.57
2019-03-30T20:27:06.124Z,25.37
2019-03-30T20:29:37.981Z,26.30
2019-03-30T20:32:09.842Z,26.93
2019-03-30T20:34:41.576Z,27.67
2019-03-30T20:37:15.707Z,24.67
2019-03-30T20:39:47.260Z,25.03
2019-03-30T20:42:18.787Z,23.50
2019-03-30T20:44:50.468Z,27.77
2019-03-30T20:47:22.028Z,29.43
2019-03-30T20:49:53.471Z,29.73
2019-03-30T20:52:25.386Z,25.17
2019-03-30T20:54:56.825Z,27.13
2019-03-30T20:57:28.636Z,30.50
2019-03-30T21:00:00.353Z,32.43
2019-03-30T21:02:32.290Z,33.98
2019-03-30T21:05:04.379Z,37.47
2019-03-30T21:07:36.015Z,39.40
2019-03-30T21:10:08.517Z,31.60
2019-03-30T21:12:39.941Z,24.33
2019-03-30T21:15:12.454Z,25.40
2019-03-30T21:17:43.899Z,29.00
2019-03-30T21:20:15.837Z,23.20
2019-03-30T21:22:47.231Z,27.40
2019-03-30T21:25:18.710Z,25.63
2019-03-30T21:27:50.344Z,23.70
2019-03-30T21:30:22.075Z,28.73
2019-03-30T21:32:54.344Z,21.37
2019-03-30T21:35:26.916Z,27.50
2019-03-30T21:37:58.861Z,27.07
2019-03-30T21:40:31.312Z,33.80
2019-03-30T21:43:03.135Z,23.63
2019-03-30T21:45:35.041Z,21.97
2019-03-30T21:48:07.618Z,29.53
2019-03-30T21:50:39.032Z,23.83
2019-03-30T21:53:10.748Z,26.40
2019-03-30T21:55:42.722Z,26.17
2019-03-30T21:58:14.173Z,28.07
2019-03-30T22:00:45.529Z,24.30
2019-03-30T22:03:17.497Z,25.10
2019-03-30T22:05:49.250Z,26.57
2019-03-30T22:08:20.980Z,25.67
2019-03-30T22:10:52.639Z,25.65
2019-03-30T22:13:25.183Z,27.27
2019-03-30T22:15:56.953Z,28.03
2019-03-30T22:18:28.712Z,31.23
2019-03-30T22:21:00.102Z,26.73
2019-03-30T22:23:31.795Z,26.52
2019-03-30T22:26:03.517Z,31.17
2019-03-30T22:28:35.125Z,29.40
2019-03-30T22:31:06.525Z,27.77
2019-03-30T22:33:37.953Z,29.43
2019-03-30T22:36:09.522Z,29.63
2019-03-30T22:38:41.187Z,29.03
2019-03-30T22:41:12.629Z,29.53
2019-03-30T22:43:44.038Z,32.20
2019-03-30T22:46:15.548Z,33.63
2019-03-30T22:48:47.484Z,30.83
2019-03-30T22:51:19.044Z,30.33
2019-03-30T22:53:50.933Z,31.70
2019-03-30T22:56:22.361Z,32.25
2019-03-30T22:58:54.001Z,31.67
2019-03-30T23:01:25.963Z,32.58
2019-03-30T23:03:57.453Z,32.87
2019-03-30T23:06:29.171Z,37.20
2019-03-30T23:09:00.690Z,33.43
2019-03-30T23:11:32.936Z,36.48
2019-03-30T23:14:04.277Z,39.33
2019-03-30T23:16:35.830Z,40.03
2019-03-30T23:19:07.367Z,39.47
2019-03-30T23:21:38.822Z,39.47
2019-03-30T23:24:10.278Z,42.77
2019-03-30T23:26:41.783Z,46.93
2019-03-30T23:29:13.475Z,42.27
2019-03-30T23:31:44.908Z,42.53
2019-03-30T23:34:18.202Z,41.67
2019-03-30T23:36:49.900Z,45.60
2019-03-30T23:39:21.968Z,50.77
2019-03-30T23:41:53.342Z,45.80
2019-03-30T23:44:24.861Z,45.33
2019-03-30T23:46:56.714Z,45.97
2019-03-30T23:49:28.451Z,47.43
2019-03-30T23:51:59.865Z,46.77
2019-03-30T23:54:31.729Z,48.73
2019-03-30T23:57:03.731Z,51.40
2019-03-30T23:59:35.402Z,48.07
